| time (UTC) | temp C | wind direction | speed KPH | gust KPH | rain 1hr cm | rain 24hr cm | rain mn cm | humidity % | barometer mb |
| 20260906060015 | 19 | 0.0 | 0.0 | 0.00 | 0.66 | 0.00 | 92 | 1016.7 | |
| 20260906055015 | 19 | 0.0 | 0.0 | 0.00 | 0.66 | 0.00 | 92 | 1017.0 | |
| 20260906054015 | 18 | 0.0 | 0.0 | 0.00 | 0.66 | 0.00 | 92 | 1017.1 | |
| 20260906053015 | 18 | 0.0 | 0.0 | 0.00 | 0.66 | 0.00 | 92 | 1017.4 | |
| 20260906052015 | 18 | 0.0 | 0.0 | 0.00 | 0.66 | 0.00 | 92 | 1017.4 | |
| 20260906051015 | 18 | 0.0 | 0.0 | 0.00 | 0.66 | 0.00 | 92 | 1017.4 | |
| 20260906050015 | 18 | 0.0 | 0.0 | 0.00 | 0.66 | 0.00 | 91 | 1017.2 | |
| 20260906045015 | 18 | 0.0 | 0.0 | 0.00 | 0.66 | 0.00 | 91 | 1017.2 | |
| 20260906044015 | 18 | 0.0 | 0.0 | 0.00 | 0.66 | 0.00 | 91 | 1017.2 | |
| 20260906043035 | 19 | 0.0 | 0.0 | 0.00 | 0.66 | 0.00 | 91 | 1017.2 | |
| 20260906042015 | 19 | 0.0 | 0.0 | 0.00 | 0.66 | 0.00 | 91 | 1017.2 | |
| 20260906041015 | 19 | 0.0 | 0.0 | 0.00 | 0.66 | 0.00 | 91 | 1017.1 | |
| 20260906040015 | 19 | 0.0 | 0.0 | 0.00 | 0.66 | 0.66 | 91 | 1017.1 | |
| 20260906035016 | 19 | 0.0 | 0.0 | 0.00 | 0.66 | 0.66 | 91 | 1017.2 | |
| 20260906034016 | 19 | 0.0 | 0.0 | 0.00 | 0.66 | 0.66 | 91 | 1017.4 | |
| 20260906033036 | 20 | 0.0 | 0.0 | 0.00 | 0.66 | 0.66 | 91 | 1017.5 | |
| 20260906032016 | 20 | 0.0 | 0.0 | 0.00 | 0.66 | 0.66 | 91 | 1017.4 | |
| 20260906031016 | 20 | 0.0 | 0.0 | 0.00 | 0.66 | 0.66 | 91 | 1017.3 | |
| 20260906030016 | 20 | 0.0 | 0.0 | 0.00 | 0.66 | 0.66 | 90 | 1017.1 | |
| 20260906025016 | 20 | 0.0 | 0.0 | 0.00 | 0.66 | 0.66 | 90 | 1016.7 | |
| 20260906024016 | 20 | 0.0 | 0.0 | 0.00 | 0.66 | 0.66 | 90 | 1016.6 | |
| 20260906023016 | 20 | 0.0 | 0.0 | 0.00 | 0.66 | 0.66 | 90 | 1016.4 | |
| 20260906022016 | 20 | 0.0 | 0.0 | 0.00 | 0.66 | 0.66 | 90 | 1016.3 | |
| 20260906021036 | 20 | 0.0 | 0.0 | 0.00 | 0.66 | 0.66 | 90 | 1016.4 | |
| 20260906020016 | 20 | 0.0 | 0.0 | 0.00 | 0.66 | 0.66 | 89 | 1016.3 | |
| 20260906015016 | 20 | 0.0 | 0.0 | 0.00 | 0.66 | 0.66 | 89 | 1016.2 | |
| 20260906014036 | 21 | 0.0 | 0.0 | 0.00 | 0.66 | 0.66 | 89 | 1016.3 | |
| 20260906013016 | 21 | 0.0 | 0.0 | 0.00 | 0.66 | 0.66 | 89 | 1016.2 | |
| 20260906012016 | 21 | 0.0 | 0.0 | 0.00 | 0.66 | 0.66 | 89 | 1015.9 | |
| 20260906011016 | 21 | 0.0 | 0.0 | 0.00 | 0.66 | 0.66 | 88 | 1015.7 | |
| 20260906010016 | 21 | 0.0 | 0.0 | 0.00 | 0.66 | 0.66 | 88 | 1015.6 | |
| 20260906005016 | 21 | 0.0 | 0.0 | 0.00 | 0.66 | 0.66 | 88 | 1015.7 | |
| 20260906004015 | 21 | 0.0 | 0.0 | 0.00 | 0.66 | 0.66 | 87 | 1015.6 | |
| 20260906003016 | 22 | 0.0 | 0.0 | 0.00 | 0.66 | 0.66 | 87 | 1015.4 | |
| 20260906002016 | 22 | 0.0 | 0.0 | 0.00 | 0.66 | 0.66 | 86 | 1015.3 | |
| 20260906001020 | 22 | 0.0 | 0.0 | 0.00 | 0.66 | 0.66 | 85 | 1015.2 | |
| 20260906000016 | 22 | 0.0 | 0.0 | 0.00 | 0.66 | 0.66 | 85 | 1015.2 | |
| 20260905235156 | 23 | 0.0 | 0.0 | 0.00 | 0.66 | 0.66 | 84 | 1015.1 | |
| 20260905234016 | 23 | 0.0 | 0.0 | 0.00 | 0.66 | 0.66 | 83 | 1015.1 | |
| 20260905233015 | 23 | 0.0 | 0.0 | 0.00 | 0.66 | 0.66 | 82 | 1015.3 | |
| 20260905232016 | 23 | 0.0 | 0.0 | 0.00 | 0.66 | 0.66 | 82 | 1015.2 | |
| 20260905231016 | 24 | 0.0 | 0.0 | 0.00 | 0.66 | 0.66 | 82 | 1015.1 | |
| 20260905230015 | 24 | 0.0 | 0.0 | 0.00 | 0.66 | 0.66 | 81 | 1015.0 | |
| 20260905225016 | 24 | 0.0 | 0.0 | 0.00 | 0.66 | 0.66 | 81 | 1015.0 | |
| 20260905224015 | 25 | 0.0 | 0.0 | 0.00 | 0.66 | 0.66 | 79 | 1015.1 | |
| 20260905223016 | 25 | 0.0 | 0.0 | 0.00 | 0.66 | 0.66 | 79 | 1015.2 | |
| 20260905222036 | 25 | 0.0 | 0.0 | 0.00 | 0.66 | 0.66 | 77 | 1015.2 | |
| 20260905221016 | 25 | 0.0 | 0.0 | 0.00 | 0.66 | 0.66 | 77 | 1015.2 | |
| 20260905220055 | 26 | 0.0 | 0.0 | 0.00 | 0.66 | 0.66 | 76 | 1015.3 | |
| 20260905215035 | 26 | 0.0 | 0.0 | 0.00 | 0.66 | 0.66 | 76 | 1015.3 | |
| 20260905214015 | 26 | 0.0 | 0.0 | 0.00 | 0.66 | 0.66 | 74 | 1015.3 | |
| 20260905213016 | 26 | 0.0 | 0.0 | 0.00 | 0.66 | 0.66 | 71 | 1015.3 | |
| 20260905212017 | 26 | 0.0 | 0.0 | 0.00 | 0.66 | 0.66 | 72 | 1015.4 | |
| 20260905211015 | 27 | 0.0 | 0.0 | 0.00 | 0.66 | 0.66 | 71 | 1015.6 | |
| 20260905210015 | 26 | 0.0 | 0.0 | 0.00 | 0.66 | 0.66 | 75 | 1015.6 | |
| 20260905205015 | 26 | 0.0 | 0.0 | 0.00 | 0.66 | 0.66 | 77 | 1015.6 | |
| 20260905204016 | 26 | 0.0 | 0.0 | 0.00 | 0.66 | 0.66 | 75 | 1015.6 | |
| 20260905203015 | 25 | 0.0 | 0.0 | 0.00 | 0.66 | 0.66 | 77 | 1015.6 | |
| 20260905202015 | 24 | 0.0 | 0.0 | 0.00 | 0.66 | 0.66 | 80 | 1015.6 | |
| 20260905201015 | 23 | 0.0 | 0.0 | 0.00 | 0.66 | 0.66 | 84 | 1015.5 | |
| 20260905200015 | 22 | 0.0 | 0.0 | 0.00 | 0.66 | 0.66 | 86 | 1015.5 | |
| 20260905195035 | 22 | 0.0 | 0.0 | 0.00 | 0.66 | 0.66 | 91 | 1015.4 | |
| 20260905194015 | 21 | 0.0 | 0.0 | 0.00 | 0.66 | 0.66 | 91 | 1015.5 | |
| 20260905193015 | 21 | 0.0 | 0.0 | 0.00 | 0.66 | 0.66 | 91 | 1015.5 | |
| 20260905192015 | 21 | 0.0 | 0.0 | 0.00 | 0.66 | 0.66 | 91 | 1015.6 | |
| 20260905191015 | 20 | 0.0 | 0.0 | 0.00 | 0.66 | 0.66 | 91 | 1015.7 | |
| 20260905190015 | 20 | 0.0 | 0.0 | 0.00 | 0.66 | 0.66 | 90 | 1016.1 | |
| 20260905185035 | 20 | 0.0 | 0.0 | 0.00 | 0.66 | 0.66 | 90 | 1016.1 | |
| 20260905184015 | 20 | 0.0 | 0.0 | 0.00 | 0.66 | 0.66 | 88 | 1015.8 | |
| 20260905183015 | 20 | 0.0 | 0.0 | 0.46 | 0.66 | 0.66 | 88 | 1015.8 | |
| 20260905182015 | 20 | 0.0 | 0.0 | 0.66 | 0.66 | 0.66 | 89 | 1015.7 | |
| 20260905181015 | 20 | 0.0 | 0.0 | 0.66 | 0.66 | 0.66 | 87 | 1016.2 | |
| 20260905180015 | 21 | 0.0 | 0.0 | 0.66 | 0.66 | 0.66 | 86 | 1016.7 | |
| 20260905175035 | 21 | 0.0 | 0.0 | 0.66 | 0.66 | 0.66 | 82 | 1017.0 | |
| 20260905174015 | 23 | 0.0 | 0.0 | 0.66 | 0.66 | 0.66 | 76 | 1017.6 | |
| 20260905173015 | 25 | 0.0 | 0.0 | 0.20 | 0.20 | 0.20 | 69 | 1018.8 | |
| 20260905172015 | 26 | 0.0 | 0.0 | 0.00 | 0.00 | 0.00 | 71 | 1018.5 | |
| 20260905171015 | 27 | 0.0 | 0.0 | 0.00 | 0.00 | 0.00 | 71 | 1018.1 | |
| 20260905170015 | 27 | 0.0 | 0.0 | 0.00 | 0.00 | 0.00 | 71 | 1018.1 | |
| 20260905165015 | 27 | 0.0 | 0.0 | 0.00 | 0.00 | 0.00 | 70 | 1018.0 | |
| 20260905164015 | 27 | 0.0 | 0.0 | 0.00 | 0.00 | 0.00 | 72 | 1018.1 | |
| 20260905163015 | 27 | 0.0 | 0.0 | 0.00 | 0.00 | 0.00 | 72 | 1018.0 | |
| 20260905162035 | 26 | 0.0 | 0.0 | 0.00 | 0.00 | 0.00 | 75 | 1018.1 | |
| 20260905161015 | 26 | 0.0 | 0.0 | 0.00 | 0.00 | 0.00 | 76 | 1018.2 | |
| 20260905160015 | 26 | 0.0 | 0.0 | 0.00 | 0.00 | 0.00 | 75 | 1018.4 | |
| 20260905155015 | 26 | 0.0 | 0.0 | 0.00 | 0.00 | 0.00 | 75 | 1018.5 | |
| 20260905154035 | 26 | 0.0 | 0.0 | 0.00 | 0.00 | 0.00 | 78 | 1018.5 | |
| 20260905153015 | 25 | 0.0 | 0.0 | 0.00 | 0.00 | 0.00 | 79 | 1018.3 | |
| 20260905152015 | 25 | 0.0 | 0.0 | 0.00 | 0.00 | 0.00 | 80 | 1017.9 | |
| 20260905151015 | 24 | 0.0 | 0.0 | 0.00 | 0.00 | 0.00 | 84 | 1017.9 | |
| 20260905150015 | 23 | 0.0 | 0.0 | 0.00 | 0.00 | 0.00 | 87 | 1017.9 | |
| 20260905145015 | 23 | 0.0 | 0.0 | 0.00 | 0.00 | 0.00 | 90 | 1017.9 | |
| 20260905144035 | 22 | 0.0 | 0.0 | 0.00 | 0.00 | 0.00 | 94 | 1018.0 | |
| 20260905143015 | 22 | 0.0 | 0.0 | 0.00 | 0.00 | 0.00 | 94 | 1017.8 | |
| 20260905142055 | 21 | 0.0 | 0.0 | 0.00 | 0.00 | 0.00 | 94 | 1017.8 | |
| 20260905141015 | 21 | 0.0 | 0.0 | 0.00 | 0.00 | 0.00 | 94 | 1017.7 | |
| 20260905140035 | 21 | 0.0 | 0.0 | 0.00 | 0.00 | 0.00 | 93 | 1017.8 | |
| 20260905135015 | 20 | 0.0 | 0.0 | 0.00 | 0.00 | 0.00 | 93 | 1017.8 | |
| 20260905134015 | 20 | 0.0 | 0.0 | 0.00 | 0.00 | 0.00 | 93 | 1017.8 | |
| 20260905133014 | 20 | 0.0 | 0.0 | 0.00 | 0.00 | 0.00 | 93 | 1018.0 | |
| 20260905132015 | 20 | 0.0 | 0.0 | 0.00 | 0.00 | 0.00 | 93 | 1018.2 | |
| 20260905131015 | 20 | 0.0 | 0.0 | 0.00 | 0.00 | 0.00 | 93 | 1018.3 | |
| 20260905130015 | 20 | 0.0 | 0.0 | 0.00 | 0.00 | 0.00 | 93 | 1018.6 | |
| 20260905125015 | 20 | 0.0 | 0.0 | 0.00 | 0.00 | 0.00 | 93 | 1018.7 | |
| 20260905124015 | 20 | 0.0 | 0.0 | 0.00 | 0.00 | 0.00 | 93 | 1018.6 | |
| 20260905123015 | 20 | 0.0 | 0.0 | 0.00 | 0.00 | 0.00 | 93 | 1018.7 | |
| 20260905122014 | 19 | 0.0 | 0.0 | 0.00 | 0.00 | 0.00 | 93 | 1018.4 | |
| 20260905121015 | 20 | 0.0 | 0.0 | 0.00 | 0.00 | 0.00 | 93 | 1018.3 | |
| 20260905120015 | 19 | 0.0 | 0.0 | 0.00 | 0.00 | 0.00 | 93 | 1018.4 | |
| 20260905115017 | 19 | 0.0 | 0.0 | 0.00 | 0.00 | 0.00 | 93 | 1018.4 | |
| 20260905114016 | 19 | 0.0 | 0.0 | 0.00 | 0.00 | 0.00 | 93 | 1018.2 | |
| 20260905113017 | 19 | 0.0 | 0.0 | 0.00 | 0.00 | 0.00 | 93 | 1018.3 | |
| 20260905112017 | 19 | 0.0 | 0.0 | 0.00 | 0.00 | 0.00 | 93 | 1018.3 | |
| 20260905111016 | 19 | 0.0 | 0.0 | 0.00 | 0.00 | 0.00 | 92 | 1018.2 | |
| 20260905110016 | 19 | 0.0 | 0.0 | 0.00 | 0.00 | 0.00 | 92 | 1018.2 | |
| 20260905105017 | 19 | 0.0 | 0.0 | 0.00 | 0.00 | 0.00 | 92 | 1018.1 | |
| 20260905104016 | 19 | 0.0 | 0.0 | 0.00 | 0.00 | 0.00 | 92 | 1018.1 | |
| 20260905103016 | 19 | 0.0 | 0.0 | 0.00 | 0.00 | 0.00 | 92 | 1018.0 | |
| 20260905102016 | 19 | 0.0 | 0.0 | 0.00 | 0.00 | 0.00 | 92 | 1018.0 | |
| 20260905101057 | 19 | 0.0 | 0.0 | 0.00 | 0.00 | 0.00 | 92 | 1017.9 | |
| 20260905100016 | 19 | 0.0 | 0.0 | 0.00 | 0.00 | 0.00 | 92 | 1018.1 | |
| 20260905095016 | 19 | 0.0 | 0.0 | 0.00 | 0.00 | 0.00 | 92 | 1018.2 | |
| 20260905094016 | 19 | 0.0 | 0.0 | 0.00 | 0.00 | 0.00 | 92 | 1018.1 | |
| 20260905093016 | 19 | 0.0 | 0.0 | 0.00 | 0.00 | 0.00 | 92 | 1018.3 | |
| 20260905092016 | 19 | 0.0 | 0.0 | 0.00 | 0.00 | 0.00 | 92 | 1018.4 | |
| 20260905091036 | 19 | 0.0 | 0.0 | 0.00 | 0.00 | 0.00 | 92 | 1018.5 | |
| 20260905090016 | 19 | 0.0 | 0.0 | 0.00 | 0.00 | 0.00 | 92 | 1018.5 | |
| 20260905085016 | 19 | 0.0 | 0.0 | 0.00 | 0.00 | 0.00 | 92 | 1018.7 | |
| 20260905084016 | 19 | 0.0 | 0.0 | 0.00 | 0.00 | 0.00 | 91 | 1018.7 | |
| 20260905083016 | 19 | 0.0 | 0.0 | 0.00 | 0.00 | 0.00 | 91 | 1018.8 | |
| 20260905082036 | 19 | 0.0 | 0.0 | 0.00 | 0.00 | 0.00 | 91 | 1018.9 | |
| 20260905081016 | 19 | 0.0 | 0.0 | 0.00 | 0.00 | 0.00 | 91 | 1018.9 | |
| 20260905080036 | 19 | 0.0 | 0.0 | 0.00 | 0.00 | 0.00 | 91 | 1018.9 | |
| 20260905075016 | 19 | 0.0 | 0.0 | 0.00 | 0.00 | 0.00 | 91 | 1019.0 | |
| 20260905074016 | 19 | 0.0 | 0.0 | 0.00 | 0.00 | 0.00 | 91 | 1019.1 | |
| 20260905073016 | 19 | 0.0 | 0.0 | 0.00 | 0.00 | 0.00 | 91 | 1019.1 | |
| 20260905072056 | 19 | 0.0 | 0.0 | 0.00 | 0.00 | 0.00 | 91 | 1019.2 | |
| 20260905071016 | 20 | 0.0 | 0.0 | 0.00 | 0.00 | 0.00 | 91 | 1019.2 | |
| 20260905070016 | 20 | 0.0 | 0.0 | 0.00 | 0.00 | 0.00 | 91 | 1019.4 | |
| 20260905065036 | 20 | 0.0 | 0.0 | 0.00 | 0.00 | 0.00 | 91 | 1019.4 | |
| 20260905064016 | 20 | 0.0 | 0.0 | 0.00 | 0.00 | 0.00 | 91 | 1019.5 | |
| 20260905063016 | 20 | 0.0 | 0.0 | 0.00 | 0.00 | 0.00 | 91 | 1019.6 | |
| 20260905062016 | 20 | 0.0 | 0.0 | 0.00 | 0.00 | 0.00 | 91 | 1019.8 | |
| 20260905061016 | 20 | 0.0 | 0.0 | 0.00 | 0.00 | 0.00 | 91 | 1020.0 |